sensor_id;sensor_type;location;lat;lon;timestamp;P1;durP1;ratioP1;P2;durP2;ratioP2
8397;SDS011;4236;54.504;9.588;2023-06-14T00:01:52;5.20;;;4.80;;
8397;SDS011;4236;54.504;9.588;2023-06-14T00:04:20;4.90;;;4.40;;
8397;SDS011;4236;54.504;9.588;2023-06-14T00:06:48;5.43;;;4.80;;
8397;SDS011;4236;54.504;9.588;2023-06-14T00:09:18;10.63;;;5.40;;
8397;SDS011;4236;54.504;9.588;2023-06-14T00:11:46;6.17;;;5.77;;
8397;SDS011;4236;54.504;9.588;2023-06-14T00:14:13;5.63;;;5.13;;
8397;SDS011;4236;54.504;9.588;2023-06-14T00:16:42;6.13;;;5.13;;
8397;SDS011;4236;54.504;9.588;2023-06-14T00:19:09;5.50;;;5.10;;
8397;SDS011;4236;54.504;9.588;2023-06-14T00:21:37;6.03;;;5.00;;
8397;SDS011;4236;54.504;9.588;2023-06-14T00:24:05;6.13;;;5.60;;
8397;SDS011;4236;54.504;9.588;2023-06-14T00:26:36;6.53;;;6.00;;
8397;SDS011;4236;54.504;9.588;2023-06-14T00:29:03;6.30;;;5.80;;
8397;SDS011;4236;54.504;9.588;2023-06-14T00:31:31;5.80;;;5.20;;
8397;SDS011;4236;54.504;9.588;2023-06-14T00:33:59;9.27;;;6.30;;
8397;SDS011;4236;54.504;9.588;2023-06-14T00:36:27;6.00;;;5.50;;
8397;SDS011;4236;54.504;9.588;2023-06-14T00:38:54;6.83;;;6.30;;
8397;SDS011;4236;54.504;9.588;2023-06-14T00:41:22;6.37;;;5.97;;
8397;SDS011;4236;54.504;9.588;2023-06-14T00:43:51;6.00;;;5.60;;
8397;SDS011;4236;54.504;9.588;2023-06-14T00:46:21;7.43;;;6.70;;
8397;SDS011;4236;54.504;9.588;2023-06-14T00:48:49;8.37;;;6.73;;
8397;SDS011;4236;54.504;9.588;2023-06-14T00:51:17;7.50;;;6.80;;
8397;SDS011;4236;54.504;9.588;2023-06-14T00:53:46;7.13;;;6.63;;
8397;SDS011;4236;54.504;9.588;2023-06-14T00:56:14;8.23;;;7.53;;
8397;SDS011;4236;54.504;9.588;2023-06-14T00:58:43;7.50;;;6.80;;
8397;SDS011;4236;54.504;9.588;2023-06-14T01:01:12;8.03;;;7.40;;
8397;SDS011;4236;54.504;9.588;2023-06-14T01:03:40;8.10;;;7.47;;
8397;SDS011;4236;54.504;9.588;2023-06-14T01:06:11;8.07;;;7.47;;
8397;SDS011;4236;54.504;9.588;2023-06-14T01:08:56;7.17;;;6.50;;
8397;SDS011;4236;54.504;9.588;2023-06-14T01:11:31;12.53;;;8.60;;
8397;SDS011;4236;54.504;9.588;2023-06-14T01:14:02;10.53;;;8.13;;
8397;SDS011;4236;54.504;9.588;2023-06-14T01:16:32;8.00;;;7.40;;
8397;SDS011;4236;54.504;9.588;2023-06-14T01:19:02;8.47;;;7.00;;
8397;SDS011;4236;54.504;9.588;2023-06-14T01:21:31;8.50;;;8.00;;
8397;SDS011;4236;54.504;9.588;2023-06-14T01:24:09;8.77;;;7.93;;
8397;SDS011;4236;54.504;9.588;2023-06-14T01:26:37;8.70;;;8.00;;
8397;SDS011;4236;54.504;9.588;2023-06-14T01:29:12;9.73;;;8.17;;
8397;SDS011;4236;54.504;9.588;2023-06-14T01:31:43;9.70;;;8.70;;
8397;SDS011;4236;54.504;9.588;2023-06-14T01:34:12;9.20;;;8.40;;
8397;SDS011;4236;54.504;9.588;2023-06-14T01:36:41;9.97;;;9.17;;
8397;SDS011;4236;54.504;9.588;2023-06-14T01:39:11;10.67;;;9.80;;
8397;SDS011;4236;54.504;9.588;2023-06-14T01:41:42;9.63;;;9.03;;
8397;SDS011;4236;54.504;9.588;2023-06-14T01:44:12;8.80;;;8.30;;
8397;SDS011;4236;54.504;9.588;2023-06-14T01:46:42;9.10;;;8.47;;
8397;SDS011;4236;54.504;9.588;2023-06-14T01:49:11;9.73;;;9.03;;
8397;SDS011;4236;54.504;9.588;2023-06-14T01:51:39;10.77;;;9.70;;
8397;SDS011;4236;54.504;9.588;2023-06-14T01:54:06;9.63;;;9.03;;
8397;SDS011;4236;54.504;9.588;2023-06-14T01:56:36;10.20;;;9.40;;
8397;SDS011;4236;54.504;9.588;2023-06-14T01:59:03;9.93;;;9.10;;
8397;SDS011;4236;54.504;9.588;2023-06-14T02:01:31;10.43;;;9.50;;
8397;SDS011;4236;54.504;9.588;2023-06-14T02:04:00;10.13;;;9.33;;
8397;SDS011;4236;54.504;9.588;2023-06-14T02:06:28;9.77;;;8.77;;
8397;SDS011;4236;54.504;9.588;2023-06-14T02:08:56;8.93;;;8.43;;
8397;SDS011;4236;54.504;9.588;2023-06-14T02:11:24;11.63;;;9.20;;
8397;SDS011;4236;54.504;9.588;2023-06-14T02:13:53;10.47;;;9.37;;
8397;SDS011;4236;54.504;9.588;2023-06-14T02:16:21;17.30;;;9.40;;
8397;SDS011;4236;54.504;9.588;2023-06-14T02:18:49;10.00;;;9.30;;
8397;SDS011;4236;54.504;9.588;2023-06-14T02:21:17;10.40;;;9.50;;
8397;SDS011;4236;54.504;9.588;2023-06-14T02:23:45;10.10;;;9.47;;
8397;SDS011;4236;54.504;9.588;2023-06-14T02:26:14;10.80;;;9.80;;
8397;SDS011;4236;54.504;9.588;2023-06-14T02:28:42;11.30;;;10.50;;
8397;SDS011;4236;54.504;9.588;2023-06-14T02:31:11;10.97;;;10.43;;
8397;SDS011;4236;54.504;9.588;2023-06-14T02:33:39;11.73;;;10.90;;
8397;SDS011;4236;54.504;9.588;2023-06-14T02:36:07;10.57;;;9.77;;
8397;SDS011;4236;54.504;9.588;2023-06-14T02:38:35;11.13;;;10.17;;
8397;SDS011;4236;54.504;9.588;2023-06-14T02:41:03;10.87;;;10.23;;
8397;SDS011;4236;54.504;9.588;2023-06-14T02:43:32;11.43;;;10.73;;
8397;SDS011;4236;54.504;9.588;2023-06-14T02:46:00;11.37;;;10.43;;
8397;SDS011;4236;54.504;9.588;2023-06-14T02:48:30;11.57;;;10.50;;
8397;SDS011;4236;54.504;9.588;2023-06-14T02:50:58;11.53;;;10.73;;
8397;SDS011;4236;54.504;9.588;2023-06-14T02:53:27;12.27;;;11.10;;
8397;SDS011;4236;54.504;9.588;2023-06-14T02:55:54;11.83;;;10.73;;
8397;SDS011;4236;54.504;9.588;2023-06-14T02:58:22;11.03;;;10.13;;
8397;SDS011;4236;54.504;9.588;2023-06-14T03:00:51;11.40;;;10.60;;
8397;SDS011;4236;54.504;9.588;2023-06-14T03:03:20;11.93;;;11.03;;
8397;SDS011;4236;54.504;9.588;2023-06-14T03:05:52;10.53;;;9.97;;
8397;SDS011;4236;54.504;9.588;2023-06-14T03:08:20;11.80;;;10.77;;
8397;SDS011;4236;54.504;9.588;2023-06-14T03:10:53;13.73;;;11.43;;
8397;SDS011;4236;54.504;9.588;2023-06-14T03:13:22;11.30;;;10.40;;
8397;SDS011;4236;54.504;9.588;2023-06-14T03:15:50;11.33;;;10.73;;
8397;SDS011;4236;54.504;9.588;2023-06-14T03:18:18;12.20;;;11.23;;
8397;SDS011;4236;54.504;9.588;2023-06-14T03:20:54;13.20;;;11.60;;
8397;SDS011;4236;54.504;9.588;2023-06-14T03:23:23;11.80;;;11.13;;
8397;SDS011;4236;54.504;9.588;2023-06-14T03:25:51;13.00;;;12.00;;
8397;SDS011;4236;54.504;9.588;2023-06-14T03:28:19;12.50;;;11.47;;
8397;SDS011;4236;54.504;9.588;2023-06-14T03:30:47;12.40;;;11.67;;
8397;SDS011;4236;54.504;9.588;2023-06-14T03:33:15;12.47;;;11.67;;
8397;SDS011;4236;54.504;9.588;2023-06-14T03:35:43;11.87;;;11.20;;
8397;SDS011;4236;54.504;9.588;2023-06-14T03:38:12;12.80;;;11.90;;
8397;SDS011;4236;54.504;9.588;2023-06-14T03:40:39;10.60;;;9.80;;
8397;SDS011;4236;54.504;9.588;2023-06-14T03:43:07;11.60;;;10.80;;
8397;SDS011;4236;54.504;9.588;2023-06-14T03:45:35;11.77;;;10.47;;
8397;SDS011;4236;54.504;9.588;2023-06-14T03:48:03;11.40;;;10.30;;
8397;SDS011;4236;54.504;9.588;2023-06-14T03:50:33;11.60;;;9.80;;
8397;SDS011;4236;54.504;9.588;2023-06-14T03:53:00;10.80;;;10.10;;
8397;SDS011;4236;54.504;9.588;2023-06-14T03:55:29;10.80;;;10.10;;
8397;SDS011;4236;54.504;9.588;2023-06-14T03:58:02;10.20;;;9.30;;
8397;SDS011;4236;54.504;9.588;2023-06-14T04:00:29;11.80;;;11.00;;
8397;SDS011;4236;54.504;9.588;2023-06-14T04:02:58;10.77;;;10.17;;
8397;SDS011;4236;54.504;9.588;2023-06-14T04:05:26;11.97;;;11.13;;
8397;SDS011;4236;54.504;9.588;2023-06-14T04:07:54;11.00;;;9.97;;
8397;SDS011;4236;54.504;9.588;2023-06-14T04:10:22;11.27;;;10.37;;
8397;SDS011;4236;54.504;9.588;2023-06-14T04:12:51;12.63;;;11.00;;
8397;SDS011;4236;54.504;9.588;2023-06-14T04:15:19;12.17;;;11.37;;
8397;SDS011;4236;54.504;9.588;2023-06-14T04:17:48;11.27;;;10.50;;
8397;SDS011;4236;54.504;9.588;2023-06-14T04:20:16;12.27;;;11.10;;
8397;SDS011;4236;54.504;9.588;2023-06-14T04:22:44;11.20;;;10.40;;
8397;SDS011;4236;54.504;9.588;2023-06-14T04:25:11;10.00;;;9.50;;
8397;SDS011;4236;54.504;9.588;2023-06-14T04:27:39;10.87;;;10.07;;
8397;SDS011;4236;54.504;9.588;2023-06-14T04:30:10;12.43;;;11.03;;
8397;SDS011;4236;54.504;9.588;2023-06-14T04:32:39;11.30;;;10.40;;
8397;SDS011;4236;54.504;9.588;2023-06-14T04:35:09;11.10;;;9.10;;
8397;SDS011;4236;54.504;9.588;2023-06-14T04:37:37;8.80;;;8.00;;
8397;SDS011;4236;54.504;9.588;2023-06-14T04:40:08;8.37;;;7.73;;
8397;SDS011;4236;54.504;9.588;2023-06-14T04:42:38;8.20;;;7.70;;
8397;SDS011;4236;54.504;9.588;2023-06-14T04:45:07;7.10;;;6.63;;
8397;SDS011;4236;54.504;9.588;2023-06-14T04:47:37;8.20;;;6.10;;
8397;SDS011;4236;54.504;9.588;2023-06-14T04:50:07;7.27;;;6.57;;
8397;SDS011;4236;54.504;9.588;2023-06-14T04:52:36;6.27;;;5.70;;
8397;SDS011;4236;54.504;9.588;2023-06-14T04:55:04;6.10;;;5.50;;
8397;SDS011;4236;54.504;9.588;2023-06-14T04:57:32;7.30;;;6.37;;
8397;SDS011;4236;54.504;9.588;2023-06-14T05:00:01;6.40;;;5.87;;
8397;SDS011;4236;54.504;9.588;2023-06-14T05:02:30;7.03;;;6.33;;
8397;SDS011;4236;54.504;9.588;2023-06-14T05:04:59;5.83;;;5.47;;
8397;SDS011;4236;54.504;9.588;2023-06-14T05:07:28;10.33;;;6.00;;
8397;SDS011;4236;54.504;9.588;2023-06-14T05:09:55;7.20;;;5.63;;
8397;SDS011;4236;54.504;9.588;2023-06-14T05:12:23;6.57;;;5.60;;
8397;SDS011;4236;54.504;9.588;2023-06-14T05:14:51;5.60;;;5.20;;
8397;SDS011;4236;54.504;9.588;2023-06-14T05:17:18;7.13;;;5.70;;
8397;SDS011;4236;54.504;9.588;2023-06-14T05:19:46;5.53;;;5.13;;
8397;SDS011;4236;54.504;9.588;2023-06-14T05:22:15;6.20;;;4.90;;
8397;SDS011;4236;54.504;9.588;2023-06-14T05:24:43;5.30;;;4.90;;
8397;SDS011;4236;54.504;9.588;2023-06-14T05:27:12;5.20;;;4.80;;
8397;SDS011;4236;54.504;9.588;2023-06-14T05:29:39;4.43;;;4.03;;
8397;SDS011;4236;54.504;9.588;2023-06-14T05:32:08;5.03;;;4.63;;
8397;SDS011;4236;54.504;9.588;2023-06-14T05:34:36;5.77;;;4.87;;
8397;SDS011;4236;54.504;9.588;2023-06-14T05:37:04;4.77;;;4.33;;
8397;SDS011;4236;54.504;9.588;2023-06-14T05:39:33;5.37;;;4.80;;
8397;SDS011;4236;54.504;9.588;2023-06-14T05:42:01;5.23;;;4.90;;
8397;SDS011;4236;54.504;9.588;2023-06-14T05:44:29;4.60;;;4.33;;
8397;SDS011;4236;54.504;9.588;2023-06-14T05:46:57;5.00;;;4.30;;
8397;SDS011;4236;54.504;9.588;2023-06-14T05:49:25;9.00;;;5.17;;
8397;SDS011;4236;54.504;9.588;2023-06-14T05:51:53;8.70;;;5.07;;
8397;SDS011;4236;54.504;9.588;2023-06-14T05:54:20;8.77;;;5.10;;
8397;SDS011;4236;54.504;9.588;2023-06-14T05:56:49;6.83;;;4.50;;
8397;SDS011;4236;54.504;9.588;2023-06-14T05:59:17;4.97;;;4.57;;
8397;SDS011;4236;54.504;9.588;2023-06-14T06:01:45;5.00;;;4.50;;
8397;SDS011;4236;54.504;9.588;2023-06-14T06:04:12;5.13;;;4.57;;
8397;SDS011;4236;54.504;9.588;2023-06-14T06:06:40;5.80;;;5.30;;
8397;SDS011;4236;54.504;9.588;2023-06-14T06:09:08;4.77;;;4.40;;
8397;SDS011;4236;54.504;9.588;2023-06-14T06:11:36;5.47;;;4.93;;
8397;SDS011;4236;54.504;9.588;2023-06-14T06:14:19;5.33;;;4.83;;
8397;SDS011;4236;54.504;9.588;2023-06-14T06:16:47;5.27;;;4.90;;
8397;SDS011;4236;54.504;9.588;2023-06-14T06:19:15;7.50;;;4.97;;
8397;SDS011;4236;54.504;9.588;2023-06-14T06:21:43;5.17;;;4.67;;
8397;SDS011;4236;54.504;9.588;2023-06-14T06:24:11;4.83;;;4.20;;
8397;SDS011;4236;54.504;9.588;2023-06-14T06:26:39;5.30;;;4.70;;
8397;SDS011;4236;54.504;9.588;2023-06-14T06:29:07;4.93;;;4.50;;
8397;SDS011;4236;54.504;9.588;2023-06-14T06:31:36;5.33;;;4.83;;
8397;SDS011;4236;54.504;9.588;2023-06-14T06:34:03;5.17;;;4.67;;
8397;SDS011;4236;54.504;9.588;2023-06-14T06:36:31;4.93;;;4.63;;
8397;SDS011;4236;54.504;9.588;2023-06-14T06:38:59;5.63;;;5.17;;
8397;SDS011;4236;54.504;9.588;2023-06-14T06:41:27;5.20;;;4.70;;
8397;SDS011;4236;54.504;9.588;2023-06-14T06:43:54;7.53;;;5.47;;
8397;SDS011;4236;54.504;9.588;2023-06-14T06:46:22;7.27;;;5.23;;
8397;SDS011;4236;54.504;9.588;2023-06-14T06:48:51;5.50;;;3.93;;
8397;SDS011;4236;54.504;9.588;2023-06-14T06:51:19;4.80;;;4.50;;
8397;SDS011;4236;54.504;9.588;2023-06-14T06:53:51;5.20;;;4.80;;
8397;SDS011;4236;54.504;9.588;2023-06-14T06:56:20;5.40;;;5.10;;
8397;SDS011;4236;54.504;9.588;2023-06-14T06:58:49;5.33;;;5.00;;
8397;SDS011;4236;54.504;9.588;2023-06-14T07:01:17;4.73;;;4.43;;
8397;SDS011;4236;54.504;9.588;2023-06-14T07:03:45;5.20;;;4.80;;
8397;SDS011;4236;54.504;9.588;2023-06-14T07:06:14;5.50;;;5.00;;
8397;SDS011;4236;54.504;9.588;2023-06-14T07:08:44;6.63;;;4.93;;
8397;SDS011;4236;54.504;9.588;2023-06-14T07:11:14;5.43;;;5.03;;
8397;SDS011;4236;54.504;9.588;2023-06-14T07:13:42;5.60;;;5.07;;
8397;SDS011;4236;54.504;9.588;2023-06-14T07:16:09;4.40;;;4.10;;
8397;SDS011;4236;54.504;9.588;2023-06-14T07:18:37;7.07;;;5.00;;
8397;SDS011;4236;54.504;9.588;2023-06-14T07:21:05;5.80;;;5.23;;
8397;SDS011;4236;54.504;9.588;2023-06-14T07:23:34;4.93;;;4.63;;
8397;SDS011;4236;54.504;9.588;2023-06-14T07:26:02;5.20;;;4.80;;
8397;SDS011;4236;54.504;9.588;2023-06-14T07:28:30;5.00;;;4.70;;
8397;SDS011;4236;54.504;9.588;2023-06-14T07:30:58;6.10;;;5.20;;
8397;SDS011;4236;54.504;9.588;2023-06-14T07:33:26;5.20;;;4.80;;
8397;SDS011;4236;54.504;9.588;2023-06-14T07:35:54;5.00;;;4.60;;
8397;SDS011;4236;54.504;9.588;2023-06-14T07:38:21;5.70;;;5.30;;
8397;SDS011;4236;54.504;9.588;2023-06-14T07:40:50;5.43;;;5.03;;
8397;SDS011;4236;54.504;9.588;2023-06-14T07:43:18;4.70;;;4.50;;
8397;SDS011;4236;54.504;9.588;2023-06-14T07:45:48;9.13;;;5.10;;
8397;SDS011;4236;54.504;9.588;2023-06-14T07:48:32;6.67;;;5.97;;
8397;SDS011;4236;54.504;9.588;2023-06-14T07:51:00;5.37;;;5.07;;
8397;SDS011;4236;54.504;9.588;2023-06-14T07:53:28;5.10;;;4.70;;
8397;SDS011;4236;54.504;9.588;2023-06-14T07:55:58;6.20;;;5.70;;
8397;SDS011;4236;54.504;9.588;2023-06-14T07:58:26;6.93;;;5.17;;
8397;SDS011;4236;54.504;9.588;2023-06-14T08:00:54;4.80;;;4.37;;
8397;SDS011;4236;54.504;9.588;2023-06-14T08:03:21;5.37;;;4.97;;
8397;SDS011;4236;54.504;9.588;2023-06-14T08:05:50;4.90;;;4.60;;
8397;SDS011;4236;54.504;9.588;2023-06-14T08:08:18;4.73;;;4.43;;
8397;SDS011;4236;54.504;9.588;2023-06-14T08:10:46;6.17;;;5.60;;
8397;SDS011;4236;54.504;9.588;2023-06-14T08:13:15;5.97;;;5.57;;
8397;SDS011;4236;54.504;9.588;2023-06-14T08:15:43;5.70;;;5.30;;
8397;SDS011;4236;54.504;9.588;2023-06-14T08:18:10;7.53;;;4.90;;
8397;SDS011;4236;54.504;9.588;2023-06-14T08:20:39;6.10;;;5.50;;
8397;SDS011;4236;54.504;9.588;2023-06-14T08:23:06;5.63;;;5.20;;
8397;SDS011;4236;54.504;9.588;2023-06-14T08:25:35;6.13;;;5.73;;
8397;SDS011;4236;54.504;9.588;2023-06-14T08:28:03;5.57;;;5.07;;
8397;SDS011;4236;54.504;9.588;2023-06-14T08:30:32;7.70;;;6.00;;
8397;SDS011;4236;54.504;9.588;2023-06-14T08:33:00;6.50;;;5.83;;
8397;SDS011;4236;54.504;9.588;2023-06-14T08:35:42;8.20;;;5.80;;
8397;SDS011;4236;54.504;9.588;2023-06-14T08:38:10;6.30;;;5.80;;
8397;SDS011;4236;54.504;9.588;2023-06-14T08:40:38;5.33;;;4.93;;
8397;SDS011;4236;54.504;9.588;2023-06-14T08:43:08;5.53;;;4.60;;
8397;SDS011;4236;54.504;9.588;2023-06-14T08:45:38;7.00;;;5.33;;
8397;SDS011;4236;54.504;9.588;2023-06-14T08:48:07;7.20;;;5.70;;
8397;SDS011;4236;54.504;9.588;2023-06-14T08:50:35;10.50;;;6.70;;
8397;SDS011;4236;54.504;9.588;2023-06-14T08:53:08;6.93;;;5.77;;
8397;SDS011;4236;54.504;9.588;2023-06-14T08:55:39;6.00;;;5.57;;
8397;SDS011;4236;54.504;9.588;2023-06-14T08:58:09;9.77;;;5.10;;
8397;SDS011;4236;54.504;9.588;2023-06-14T09:00:42;5.57;;;5.27;;
8397;SDS011;4236;54.504;9.588;2023-06-14T09:03:11;8.80;;;5.83;;
8397;SDS011;4236;54.504;9.588;2023-06-14T09:05:41;5.83;;;5.43;;
8397;SDS011;4236;54.504;9.588;2023-06-14T09:08:10;11.03;;;6.13;;
8397;SDS011;4236;54.504;9.588;2023-06-14T09:10:38;6.13;;;5.63;;
8397;SDS011;4236;54.504;9.588;2023-06-14T09:13:07;8.27;;;6.00;;
8397;SDS011;4236;54.504;9.588;2023-06-14T09:15:35;11.07;;;5.40;;
8397;SDS011;4236;54.504;9.588;2023-06-14T09:18:04;6.40;;;5.80;;
8397;SDS011;4236;54.504;9.588;2023-06-14T09:20:33;7.23;;;6.00;;
8397;SDS011;4236;54.504;9.588;2023-06-14T09:23:00;6.10;;;5.60;;
8397;SDS011;4236;54.504;9.588;2023-06-14T09:25:31;7.37;;;5.80;;
8397;SDS011;4236;54.504;9.588;2023-06-14T09:28:06;6.90;;;6.20;;
8397;SDS011;4236;54.504;9.588;2023-06-14T09:30:36;5.97;;;5.50;;
8397;SDS011;4236;54.504;9.588;2023-06-14T09:33:05;7.60;;;5.70;;
8397;SDS011;4236;54.504;9.588;2023-06-14T09:35:34;6.00;;;5.50;;
8397;SDS011;4236;54.504;9.588;2023-06-14T09:38:02;6.53;;;5.97;;
8397;SDS011;4236;54.504;9.588;2023-06-14T09:40:33;9.13;;;5.93;;
8397;SDS011;4236;54.504;9.588;2023-06-14T09:43:04;6.00;;;5.50;;
8397;SDS011;4236;54.504;9.588;2023-06-14T09:45:34;6.80;;;6.30;;
8397;SDS011;4236;54.504;9.588;2023-06-14T09:48:03;6.27;;;4.90;;
8397;SDS011;4236;54.504;9.588;2023-06-14T09:50:35;6.37;;;5.87;;
8397;SDS011;4236;54.504;9.588;2023-06-14T09:53:03;6.03;;;5.50;;
8397;SDS011;4236;54.504;9.588;2023-06-14T09:55:34;8.17;;;5.70;;
8397;SDS011;4236;54.504;9.588;2023-06-14T09:58:04;6.00;;;5.50;;
8397;SDS011;4236;54.504;9.588;2023-06-14T10:00:34;6.10;;;5.70;;
8397;SDS011;4236;54.504;9.588;2023-06-14T10:03:05;5.83;;;5.20;;
8397;SDS011;4236;54.504;9.588;2023-06-14T10:05:41;6.43;;;5.80;;
8397;SDS011;4236;54.504;9.588;2023-06-14T10:08:13;5.73;;;5.40;;
8397;SDS011;4236;54.504;9.588;2023-06-14T10:10:43;5.83;;;5.43;;
8397;SDS011;4236;54.504;9.588;2023-06-14T10:13:11;6.10;;;5.70;;
8397;SDS011;4236;54.504;9.588;2023-06-14T10:15:42;6.63;;;5.40;;
8397;SDS011;4236;54.504;9.588;2023-06-14T10:18:19;7.10;;;5.63;;
8397;SDS011;4236;54.504;9.588;2023-06-14T10:20:55;6.50;;;4.80;;
8397;SDS011;4236;54.504;9.588;2023-06-14T10:23:31;5.67;;;5.23;;
8397;SDS011;4236;54.504;9.588;2023-06-14T10:26:02;6.70;;;6.20;;
8397;SDS011;4236;54.504;9.588;2023-06-14T10:28:30;6.07;;;5.53;;
8397;SDS011;4236;54.504;9.588;2023-06-14T10:31:02;8.00;;;5.70;;
8397;SDS011;4236;54.504;9.588;2023-06-14T10:33:31;5.83;;;5.43;;
8397;SDS011;4236;54.504;9.588;2023-06-14T10:36:08;5.97;;;5.47;;
8397;SDS011;4236;54.504;9.588;2023-06-14T10:38:37;6.00;;;4.70;;
8397;SDS011;4236;54.504;9.588;2023-06-14T10:41:05;5.33;;;4.93;;
8397;SDS011;4236;54.504;9.588;2023-06-14T10:43:34;5.50;;;5.00;;
8397;SDS011;4236;54.504;9.588;2023-06-14T10:46:12;5.60;;;5.10;;
8397;SDS011;4236;54.504;9.588;2023-06-14T10:48:41;6.00;;;5.57;;
8397;SDS011;4236;54.504;9.588;2023-06-14T10:51:18;5.60;;;4.73;;
8397;SDS011;4236;54.504;9.588;2023-06-14T10:53:50;5.03;;;4.63;;
8397;SDS011;4236;54.504;9.588;2023-06-14T10:56:27;5.37;;;4.97;;
8397;SDS011;4236;54.504;9.588;2023-06-14T10:58:56;5.90;;;5.40;;
8397;SDS011;4236;54.504;9.588;2023-06-14T11:01:32;6.23;;;5.67;;
8397;SDS011;4236;54.504;9.588;2023-06-14T11:04:08;5.87;;;5.47;;
8397;SDS011;4236;54.504;9.588;2023-06-14T11:06:45;7.83;;;5.00;;
8397;SDS011;4236;54.504;9.588;2023-06-14T11:09:24;5.73;;;5.00;;
8397;SDS011;4236;54.504;9.588;2023-06-14T11:12:20;5.27;;;4.83;;
8397;SDS011;4236;54.504;9.588;2023-06-14T11:14:48;5.63;;;5.13;;
8397;SDS011;4236;54.504;9.588;2023-06-14T11:17:16;6.70;;;5.30;;
8397;SDS011;4236;54.504;9.588;2023-06-14T11:19:44;6.50;;;4.77;;
8397;SDS011;4236;54.504;9.588;2023-06-14T11:22:13;6.73;;;5.27;;
8397;SDS011;4236;54.504;9.588;2023-06-14T11:24:43;5.13;;;4.83;;
8397;SDS011;4236;54.504;9.588;2023-06-14T11:27:11;5.53;;;5.13;;
8397;SDS011;4236;54.504;9.588;2023-06-14T11:29:39;4.67;;;4.27;;
8397;SDS011;4236;54.504;9.588;2023-06-14T11:32:15;4.43;;;4.23;;
8397;SDS011;4236;54.504;9.588;2023-06-14T11:34:45;5.53;;;5.23;;
8397;SDS011;4236;54.504;9.588;2023-06-14T11:37:15;4.90;;;4.50;;
8397;SDS011;4236;54.504;9.588;2023-06-14T11:39:43;4.93;;;4.63;;
8397;SDS011;4236;54.504;9.588;2023-06-14T11:42:13;6.00;;;5.20;;
8397;SDS011;4236;54.504;9.588;2023-06-14T11:44:41;5.20;;;4.80;;
8397;SDS011;4236;54.504;9.588;2023-06-14T11:47:09;4.60;;;4.23;;
8397;SDS011;4236;54.504;9.588;2023-06-14T11:49:37;6.10;;;5.70;;
8397;SDS011;4236;54.504;9.588;2023-06-14T11:52:04;7.83;;;5.43;;
8397;SDS011;4236;54.504;9.588;2023-06-14T11:54:34;5.37;;;4.83;;
8397;SDS011;4236;54.504;9.588;2023-06-14T11:57:02;5.30;;;4.90;;
8397;SDS011;4236;54.504;9.588;2023-06-14T11:59:31;4.97;;;4.67;;
8397;SDS011;4236;54.504;9.588;2023-06-14T12:01:58;4.63;;;4.23;;
8397;SDS011;4236;54.504;9.588;2023-06-14T12:04:26;4.70;;;4.40;;
8397;SDS011;4236;54.504;9.588;2023-06-14T12:06:54;4.67;;;4.27;;
8397;SDS011;4236;54.504;9.588;2023-06-14T12:09:23;4.40;;;4.10;;
8397;SDS011;4236;54.504;9.588;2023-06-14T12:12:00;5.03;;;4.63;;
8397;SDS011;4236;54.504;9.588;2023-06-14T12:14:30;5.03;;;4.63;;
8397;SDS011;4236;54.504;9.588;2023-06-14T12:17:03;5.53;;;4.80;;
8397;SDS011;4236;54.504;9.588;2023-06-14T12:19:32;4.87;;;4.57;;
8397;SDS011;4236;54.504;9.588;2023-06-14T12:22:01;6.40;;;4.97;;
8397;SDS011;4236;54.504;9.588;2023-06-14T12:24:31;5.37;;;4.73;;
8397;SDS011;4236;54.504;9.588;2023-06-14T12:27:01;4.70;;;4.40;;
8397;SDS011;4236;54.504;9.588;2023-06-14T12:29:29;4.80;;;4.40;;
8397;SDS011;4236;54.504;9.588;2023-06-14T12:31:57;5.13;;;4.70;;
8397;SDS011;4236;54.504;9.588;2023-06-14T12:34:25;5.40;;;4.90;;
8397;SDS011;4236;54.504;9.588;2023-06-14T12:36:53;4.97;;;4.53;;
8397;SDS011;4236;54.504;9.588;2023-06-14T12:39:21;5.00;;;4.50;;
8397;SDS011;4236;54.504;9.588;2023-06-14T12:41:50;4.20;;;4.00;;
8397;SDS011;4236;54.504;9.588;2023-06-14T12:44:20;6.20;;;5.57;;
8397;SDS011;4236;54.504;9.588;2023-06-14T12:46:48;5.53;;;5.20;;
8397;SDS011;4236;54.504;9.588;2023-06-14T12:49:17;4.80;;;4.50;;
8397;SDS011;4236;54.504;9.588;2023-06-14T12:51:46;4.80;;;4.40;;
8397;SDS011;4236;54.504;9.588;2023-06-14T12:54:14;4.80;;;4.50;;
8397;SDS011;4236;54.504;9.588;2023-06-14T12:56:53;5.37;;;4.83;;
8397;SDS011;4236;54.504;9.588;2023-06-14T12:59:23;5.03;;;4.73;;
8397;SDS011;4236;54.504;9.588;2023-06-14T13:01:51;4.53;;;4.13;;
8397;SDS011;4236;54.504;9.588;2023-06-14T13:04:19;4.70;;;4.53;;
8397;SDS011;4236;54.504;9.588;2023-06-14T13:06:47;5.10;;;4.60;;
8397;SDS011;4236;54.504;9.588;2023-06-14T13:09:15;5.13;;;4.63;;
8397;SDS011;4236;54.504;9.588;2023-06-14T13:11:43;5.53;;;5.00;;
8397;SDS011;4236;54.504;9.588;2023-06-14T13:14:13;4.90;;;4.50;;
8397;SDS011;4236;54.504;9.588;2023-06-14T13:16:52;4.77;;;4.50;;
8397;SDS011;4236;54.504;9.588;2023-06-14T13:19:21;4.13;;;3.83;;
8397;SDS011;4236;54.504;9.588;2023-06-14T13:21:49;5.17;;;4.73;;
8397;SDS011;4236;54.504;9.588;2023-06-14T13:24:17;4.80;;;4.03;;
8397;SDS011;4236;54.504;9.588;2023-06-14T13:26:45;5.50;;;5.00;;
8397;SDS011;4236;54.504;9.588;2023-06-14T13:29:12;5.77;;;4.87;;
8397;SDS011;4236;54.504;9.588;2023-06-14T13:31:40;6.77;;;4.90;;
8397;SDS011;4236;54.504;9.588;2023-06-14T13:34:09;4.53;;;4.33;;
8397;SDS011;4236;54.504;9.588;2023-06-14T13:36:37;5.30;;;4.60;;
8397;SDS011;4236;54.504;9.588;2023-06-14T13:39:05;7.97;;;5.20;;
8397;SDS011;4236;54.504;9.588;2023-06-14T13:41:32;4.30;;;4.00;;
8397;SDS011;4236;54.504;9.588;2023-06-14T13:44:01;5.40;;;5.00;;
8397;SDS011;4236;54.504;9.588;2023-06-14T13:46:30;4.97;;;4.57;;
8397;SDS011;4236;54.504;9.588;2023-06-14T13:48:58;4.97;;;4.67;;
8397;SDS011;4236;54.504;9.588;2023-06-14T13:51:28;4.67;;;4.47;;
8397;SDS011;4236;54.504;9.588;2023-06-14T13:53:56;5.23;;;4.93;;
8397;SDS011;4236;54.504;9.588;2023-06-14T13:56:24;5.37;;;4.90;;
8397;SDS011;4236;54.504;9.588;2023-06-14T13:58:51;5.93;;;5.37;;
8397;SDS011;4236;54.504;9.588;2023-06-14T14:01:19;5.47;;;5.17;;
8397;SDS011;4236;54.504;9.588;2023-06-14T14:03:47;5.17;;;4.80;;
8397;SDS011;4236;54.504;9.588;2023-06-14T14:06:16;4.90;;;4.60;;
8397;SDS011;4236;54.504;9.588;2023-06-14T14:08:45;7.13;;;5.10;;
8397;SDS011;4236;54.504;9.588;2023-06-14T14:11:13;5.87;;;4.30;;
8397;SDS011;4236;54.504;9.588;2023-06-14T14:13:42;5.10;;;4.80;;
8397;SDS011;4236;54.504;9.588;2023-06-14T14:16:10;5.87;;;5.47;;
8397;SDS011;4236;54.504;9.588;2023-06-14T14:18:38;5.53;;;4.80;;
8397;SDS011;4236;54.504;9.588;2023-06-14T14:21:06;5.10;;;4.77;;
8397;SDS011;4236;54.504;9.588;2023-06-14T14:23:34;4.90;;;4.53;;
8397;SDS011;4236;54.504;9.588;2023-06-14T14:26:03;7.33;;;4.70;;
8397;SDS011;4236;54.504;9.588;2023-06-14T14:28:30;5.50;;;5.10;;
8397;SDS011;4236;54.504;9.588;2023-06-14T14:30:58;5.43;;;5.13;;
8397;SDS011;4236;54.504;9.588;2023-06-14T14:33:26;5.20;;;4.80;;
8397;SDS011;4236;54.504;9.588;2023-06-14T14:35:54;5.17;;;4.70;;
8397;SDS011;4236;54.504;9.588;2023-06-14T14:38:22;5.60;;;5.20;;
8397;SDS011;4236;54.504;9.588;2023-06-14T14:40:49;5.23;;;4.93;;
8397;SDS011;4236;54.504;9.588;2023-06-14T14:43:18;5.40;;;5.07;;
8397;SDS011;4236;54.504;9.588;2023-06-14T14:45:46;5.53;;;4.87;;
8397;SDS011;4236;54.504;9.588;2023-06-14T14:48:14;4.87;;;4.57;;
8397;SDS011;4236;54.504;9.588;2023-06-14T14:50:41;6.40;;;4.77;;
8397;SDS011;4236;54.504;9.588;2023-06-14T14:53:09;4.90;;;4.60;;
8397;SDS011;4236;54.504;9.588;2023-06-14T14:55:37;4.90;;;4.60;;
8397;SDS011;4236;54.504;9.588;2023-06-14T14:58:06;6.33;;;4.97;;
8397;SDS011;4236;54.504;9.588;2023-06-14T15:00:36;4.90;;;4.67;;
8397;SDS011;4236;54.504;9.588;2023-06-14T15:03:03;4.70;;;4.50;;
8397;SDS011;4236;54.504;9.588;2023-06-14T15:05:31;6.20;;;5.63;;
8397;SDS011;4236;54.504;9.588;2023-06-14T15:07:59;4.73;;;4.53;;
8397;SDS011;4236;54.504;9.588;2023-06-14T15:10:27;6.23;;;4.83;;
8397;SDS011;4236;54.504;9.588;2023-06-14T15:12:55;5.90;;;5.50;;
8397;SDS011;4236;54.504;9.588;2023-06-14T15:15:22;5.63;;;5.43;;
8397;SDS011;4236;54.504;9.588;2023-06-14T15:17:51;5.73;;;5.43;;
8397;SDS011;4236;54.504;9.588;2023-06-14T15:20:19;6.97;;;5.20;;
8397;SDS011;4236;54.504;9.588;2023-06-14T15:22:47;5.50;;;5.03;;